Time;durP1;ratioP1;P1;durP2;ratioP2;P2;SDS_P1;SDS_P2;PMS_P1;PMS_P2;Temp;Humidity;BMP_temperature;BMP_pressure;BME280_temperature;BME280_humidity;BME280_pressure;Samples;Min_cycle;Max_cycle;Signal;HPM_P1;HPM_P2
2022/06/16 00:00:39;;;;;;;3.65;0.85;;;;;;;21.74;39.17;101759.72;16131518;19;130053;-56
2022/06/16 00:06:00;;;;;;;1.23;0.75;;;;;;;21.74;39.41;101767.22;16132029;19;129225;-57
2022/06/16 00:11:22;;;;;;;1.10;0.70;;;;;;;21.72;39.69;101759.13;16136183;19;129490;-57
2022/06/16 00:16:45;;;;;;;1.45;0.75;;;;;;;21.73;39.67;101760.81;16136280;19;129361;-57
2022/06/16 00:22:07;;;;;;;2.38;1.00;;;;;;;21.72;39.63;101778.59;16134752;19;129209;-57
2022/06/16 00:27:30;;;;;;;1.85;0.77;;;;;;;21.71;39.67;101784.44;16130833;19;130913;-54
2022/06/16 00:32:51;;;;;;;3.08;0.82;;;;;;;21.71;39.64;101784.44;16135207;19;129337;-57
2022/06/16 00:38:13;;;;;;;1.08;0.60;;;;;;;21.70;39.68;101778.00;16134333;19;129294;-57
2022/06/16 00:43:36;;;;;;;1.27;0.60;;;;;;;21.70;39.41;101782.75;16130724;19;129956;-57
2022/06/16 00:49:04;;;;;;;2.13;0.60;;;;;;;21.69;39.45;101781.88;16126913;19;129401;-56
2022/06/16 00:54:34;;;;;;;4.40;0.70;;;;;;;21.69;39.40;101779.09;16136379;19;129527;-56
2022/06/16 00:59:57;;;;;;;1.40;0.80;;;;;;;21.68;39.15;101780.19;16149760;19;129868;-57
2022/06/16 01:05:19;;;;;;;0.88;0.57;;;;;;;21.68;39.16;101785.75;16148284;19;128914;-57
2022/06/16 01:10:46;;;;;;;1.50;0.60;;;;;;;21.66;39.62;101788.81;16146628;19;131638;-56
2022/06/16 01:16:29;;;;;;;3.00;0.90;;;;;;;21.67;39.30;101796.06;16146001;19;129147;-57
2022/06/16 01:22:14;;;;;;;0.98;0.63;;;;;;;21.65;39.67;101791.84;16147658;19;129311;-57
2022/06/16 01:27:44;;;;;;;2.05;0.88;;;;;;;21.65;39.56;101791.84;16144480;19;128840;-57
2022/06/16 01:33:35;;;;;;;1.65;0.60;;;;;;;21.63;39.60;101792.06;16148541;19;130525;-56
2022/06/16 01:39:07;;;;;;;1.17;0.60;;;;;;;21.64;39.58;101804.06;16137587;19;130770;-57
2022/06/16 01:44:42;;;;;;;1.10;0.70;;;;;;;21.64;39.51;101812.41;16136804;19;129900;-56
2022/06/16 01:50:13;;;;;;;3.17;0.70;;;;;;;21.63;39.54;101799.59;16133281;19;129669;-57
2022/06/16 01:55:41;;;;;;;1.38;0.50;;;;;;;21.62;39.50;101795.94;16134935;19;129577;-57
2022/06/16 02:01:07;;;;;;;1.63;0.70;;;;;;;21.60;39.45;101794.50;16137156;19;129941;-57
2022/06/16 02:06:34;;;;;;;1.23;0.50;;;;;;;21.60;39.65;101816.78;16132018;19;130068;-56
2022/06/16 02:11:59;;;;;;;0.95;0.60;;;;;;;21.60;39.19;101817.59;16136207;19;130109;-57
2022/06/16 02:17:21;;;;;;;2.25;0.60;;;;;;;21.59;39.47;101817.88;16145104;19;130216;-56
2022/06/16 02:22:43;;;;;;;1.55;0.80;;;;;;;21.58;39.28;101846.81;16143762;19;129203;-57
2022/06/16 02:28:05;;;;;;;1.65;0.68;;;;;;;21.57;39.08;101859.03;16138700;19;129593;-56
2022/06/16 02:33:40;;;;;;;2.03;0.65;;;;;;;21.57;39.27;101862.66;16140067;19;129359;-56
2022/06/16 02:39:32;;;;;;;2.63;0.70;;;;;;;21.58;39.46;101866.28;16140876;19;129369;-56
2022/06/16 02:45:06;;;;;;;1.08;0.70;;;;;;;21.55;39.36;101861.19;16138933;19;129439;-53
2022/06/16 02:50:59;;;;;;;0.88;0.70;;;;;;;21.54;39.09;101863.16;16142735;19;129411;-54
2022/06/16 02:56:34;;;;;;;1.67;0.68;;;;;;;21.52;39.14;101874.53;16141926;19;130201;-56
2022/06/16 03:02:08;;;;;;;2.42;0.80;;;;;;;21.52;38.94;101877.34;16136636;19;129812;-56
2022/06/16 03:07:34;;;;;;;1.42;0.70;;;;;;;21.50;39.43;101885.06;16135985;19;129123;-56
2022/06/16 03:12:55;;;;;;;3.03;1.08;;;;;;;21.50;39.01;101873.06;16137305;19;133083;-57
2022/06/16 03:18:18;;;;;;;1.40;0.82;;;;;;;21.48;39.19;101878.88;16140589;19;129759;-57
2022/06/16 03:23:40;;;;;;;2.25;0.80;;;;;;;21.48;38.96;101880.78;16143251;19;131039;-57
2022/06/16 03:29:02;;;;;;;1.77;0.80;;;;;;;21.48;39.33;101901.13;16136862;19;128876;-57
2022/06/16 03:34:25;;;;;;;1.92;0.88;;;;;;;21.46;39.05;101892.16;16141093;19;130495;-56
2022/06/16 03:39:47;;;;;;;3.42;1.15;;;;;;;21.45;38.99;101898.81;16139208;19;129109;-56
2022/06/16 03:45:10;;;;;;;1.77;0.85;;;;;;;21.45;38.98;101903.56;16136828;19;128837;-57
2022/06/16 03:50:35;;;;;;;1.52;0.70;;;;;;;21.45;38.83;101901.63;16135122;19;129128;-57
2022/06/16 03:55:57;;;;;;;1.58;0.95;;;;;;;21.44;38.91;101901.88;16139046;19;129692;-56
2022/06/16 04:01:19;;;;;;;1.27;0.80;;;;;;;21.45;39.19;101928.63;16136891;19;130224;-56
2022/06/16 04:06:42;;;;;;;2.47;1.00;;;;;;;21.44;39.03;101932.47;16137226;19;129072;-57
2022/06/16 04:12:05;;;;;;;2.25;0.88;;;;;;;21.43;38.84;101939.97;16138583;19;130229;-57
2022/06/16 04:17:27;;;;;;;2.22;0.90;;;;;;;21.41;38.80;101947.75;16137642;19;130106;-55
2022/06/16 04:22:53;;;;;;;2.28;0.80;;;;;;;21.41;38.99;101950.53;16136563;19;129372;-55
2022/06/16 04:28:14;;;;;;;1.30;0.70;;;;;;;21.41;38.61;101961.66;16136646;19;129770;-57
2022/06/16 04:33:37;;;;;;;2.33;0.90;;;;;;;21.41;38.64;101958.88;16144264;19;129600;-57
2022/06/16 04:38:59;;;;;;;2.05;0.63;;;;;;;21.41;38.98;101970.00;16152509;19;129564;-57
2022/06/16 04:44:21;;;;;;;1.25;0.65;;;;;;;21.41;39.14;101963.59;16150277;19;129326;-57
2022/06/16 04:49:48;;;;;;;0.98;0.68;;;;;;;21.41;39.06;101964.44;16146730;19;130408;-56
2022/06/16 04:55:11;;;;;;;1.17;0.82;;;;;;;21.40;38.68;101968.31;16149771;19;128735;-57
2022/06/16 05:00:34;;;;;;;2.85;0.65;;;;;;;21.42;39.12;101974.47;16150000;19;129632;-56
2022/06/16 05:06:03;;;;;;;1.92;0.88;;;;;;;21.41;38.75;101978.38;16148856;19;129149;-57
2022/06/16 05:11:25;;;;;;;2.25;0.90;;;;;;;21.41;38.58;101981.16;16143163;19;131757;-56
2022/06/16 05:16:50;;;;;;;1.40;0.65;;;;;;;21.41;39.14;101986.72;16149238;19;129860;-57
2022/06/16 05:22:12;;;;;;;2.10;0.80;;;;;;;21.45;38.56;101993.47;16147747;19;128898;-56
2022/06/16 05:27:34;;;;;;;4.85;1.10;;;;;;;21.49;38.94;102002.22;16143073;19;129510;-56
2022/06/16 05:32:56;;;;;;;3.45;0.90;;;;;;;21.54;38.55;102007.09;16150342;19;130175;-56
2022/06/16 05:38:18;;;;;;;1.83;0.90;;;;;;;21.58;38.58;102020.31;16145402;19;129032;-56
2022/06/16 05:43:40;;;;;;;1.80;0.88;;;;;;;21.61;38.36;102025.38;16143232;19;129990;-57
2022/06/16 05:49:04;;;;;;;5.03;0.88;;;;;;;21.64;38.46;102027.69;16141596;19;130509;-57
2022/06/16 05:54:28;;;;;;;2.78;1.05;;;;;;;21.67;38.32;102043.06;16145935;19;129341;-56
2022/06/16 05:59:49;;;;;;;2.60;1.08;;;;;;;21.65;38.42;102048.03;16146115;19;128798;-57
2022/06/16 06:05:11;;;;;;;1.75;0.90;;;;;;;21.66;38.42;102055.31;16145746;19;129126;-57
2022/06/16 06:16:26;;;;;;;3.78;0.60;;;;;;;21.62;38.12;102048.50;16145451;19;129775;-57
2022/06/16 06:22:02;;;;;;;2.97;1.00;;;;;;;21.62;38.21;102054.06;16145347;19;129140;-55
2022/06/16 06:27:34;;;;;;;3.40;0.80;;;;;;;21.61;38.37;102058.78;16141931;19;129491;-57
2022/06/16 06:32:59;;;;;;;1.58;0.80;;;;;;;21.59;38.14;102066.56;16143460;19;129261;-57
2022/06/16 06:38:21;;;;;;;2.35;0.90;;;;;;;21.60;38.23;102078.53;16142885;19;130122;-56
2022/06/16 06:43:43;;;;;;;1.55;1.05;;;;;;;21.60;38.50;102079.34;16143769;19;129946;-57
2022/06/16 06:49:05;;;;;;;1.35;0.70;;;;;;;21.60;38.10;102082.16;16140807;19;129306;-57
2022/06/16 06:54:27;;;;;;;1.45;0.80;;;;;;;21.61;38.29;102100.56;16142777;19;129346;-57
2022/06/16 06:59:49;;;;;;;1.65;0.98;;;;;;;21.62;38.53;102123.69;16140030;19;130377;-57
2022/06/16 07:05:11;;;;;;;3.13;0.80;;;;;;;21.61;38.55;102124.78;16141282;19;129545;-54
2022/06/16 07:10:40;;;;;;;2.10;0.93;;;;;;;21.61;38.60;102128.41;16137341;19;130568;-57
2022/06/16 07:16:09;;;;;;;1.95;0.98;;;;;;;21.62;38.30;102145.97;16137461;19;129687;-57
2022/06/16 07:21:30;;;;;;;1.10;0.73;;;;;;;21.61;38.27;102153.47;16143111;19;129647;-57
2022/06/16 07:26:52;;;;;;;2.05;0.77;;;;;;;21.62;38.52;102160.72;16141434;19;129014;-57
2022/06/16 07:32:14;;;;;;;1.13;1.00;;;;;;;21.63;38.45;102150.47;16141730;19;129369;-57
2022/06/16 07:37:37;;;;;;;2.70;1.08;;;;;;;21.63;38.54;102156.88;16142196;19;129806;-57
2022/06/16 07:42:58;;;;;;;0.95;0.52;;;;;;;21.64;38.40;102157.72;16142272;19;129373;-57
2022/06/16 07:48:20;;;;;;;1.58;0.80;;;;;;;21.63;38.32;102156.03;16136974;19;129626;-57
2022/06/16 07:53:42;;;;;;;2.17;0.77;;;;;;;21.64;38.55;102163.31;16138044;19;129475;-56
2022/06/16 07:59:04;;;;;;;1.48;0.90;;;;;;;21.64;38.35;102169.72;16140856;19;129018;-57
2022/06/16 08:04:26;;;;;;;1.15;0.60;;;;;;;21.65;38.27;102170.56;16137794;19;129577;-55
2022/06/16 08:09:48;;;;;;;3.67;0.90;;;;;;;21.65;38.13;102173.34;16136896;19;129448;-58
2022/06/16 08:15:11;;;;;;;3.72;0.80;;;;;;;21.65;38.44;102168.63;16136789;19;129771;-57
2022/06/16 08:20:36;;;;;;;2.45;0.85;;;;;;;21.65;38.32;102167.78;16142395;19;129436;-55
2022/06/16 08:25:58;;;;;;;1.73;0.90;;;;;;;21.65;38.00;102170.56;16142669;19;129061;-57
2022/06/16 08:31:21;;;;;;;1.42;0.57;;;;;;;21.66;38.31;102177.84;16150287;19;129229;-56
2022/06/16 08:36:43;;;;;;;1.08;0.63;;;;;;;21.65;37.97;102182.53;16154567;19;128870;-57
2022/06/16 08:42:39;;;;;;;1.92;0.60;;;;;;;21.66;37.62;102184.25;16158776;19;129528;-57
2022/06/16 08:48:18;;;;;;;1.57;0.70;;;;;;;21.66;37.97;102184.25;16156269;19;128917;-56
2022/06/16 08:53:40;;;;;;;1.65;0.50;;;;;;;21.65;37.94;102184.50;16155681;19;130401;-55
2022/06/16 08:59:22;;;;;;;1.15;0.60;;;;;;;21.67;37.53;102185.94;16154326;19;129444;-55
2022/06/16 09:04:59;;;;;;;1.92;0.70;;;;;;;21.67;37.68;102174.81;16153401;19;129737;-56
2022/06/16 09:10:38;;;;;;;2.03;0.70;;;;;;;21.67;37.84;102179.50;16146829;19;129129;-58
2022/06/16 09:16:22;;;;;;;1.45;0.60;;;;;;;21.69;37.70;102177.34;16164308;19;128924;-55
2022/06/16 09:21:52;;;;;;;2.13;0.77;;;;;;;21.67;37.53;102173.94;16233015;19;128845;-55
2022/06/16 09:27:25;;;;;;;2.58;1.05;;;;;;;21.69;37.57;102176.50;16232925;19;129258;-57
2022/06/16 09:33:02;;;;;;;1.85;0.65;;;;;;;21.70;37.45;102173.47;16231809;19;129704;-57
2022/06/16 09:38:33;;;;;;;1.50;0.90;;;;;;;21.69;37.52;102180.13;16227759;19;129354;-57
2022/06/16 09:43:58;;;;;;;2.15;0.80;;;;;;;21.70;37.06;102178.22;16225422;19;128114;-58
2022/06/16 09:49:26;;;;;;;1.90;1.00;;;;;;;21.71;37.20;102191.88;16230481;19;129225;-57
2022/06/16 09:55:26;;;;;;;6.05;1.00;;;;;;;21.72;37.06;102210.31;16227810;19;128451;-57
2022/06/16 10:00:50;;;;;;;4.13;1.20;;;;;;;21.72;37.25;102204.72;16217669;19;128504;-57
2022/06/16 10:06:40;;;;;;;4.93;1.42;;;;;;;21.73;37.29;102188.84;16227909;19;129222;-54
2022/06/16 10:12:12;;;;;;;2.58;1.20;;;;;;;21.73;37.20;102195.28;16224623;19;129946;-57
2022/06/16 10:17:35;;;;;;;2.47;0.90;;;;;;;21.72;37.44;102215.03;16229617;19;128185;-56
2022/06/16 10:23:06;;;;;;;3.35;1.25;;;;;;;21.75;36.82;102220.13;16222547;19;128093;-56
2022/06/16 10:28:42;;;;;;;4.95;1.20;;;;;;;21.74;37.29;102213.72;16224473;19;127547;-56
2022/06/16 10:34:15;;;;;;;3.60;1.25;;;;;;;21.74;36.99;102208.13;16228371;19;129288;-56
2022/06/16 10:39:43;;;;;;;2.38;1.10;;;;;;;21.74;36.72;102210.94;16227089;19;128609;-55
2022/06/16 10:45:05;;;;;;;2.10;1.00;;;;;;;21.75;37.17;102204.28;16207450;19;130868;-57
2022/06/16 10:50:34;;;;;;;5.32;1.50;;;;;;;21.75;37.12;102195.03;16138390;19;129261;-57
2022/06/16 10:56:03;;;;;;;5.45;1.15;;;;;;;21.76;37.16;102194.84;16140684;19;130134;-57
2022/06/16 11:01:30;;;;;;;2.80;1.10;;;;;;;21.76;36.88;102202.31;16135807;19;129358;-57
2022/06/16 11:06:55;;;;;;;2.53;1.00;;;;;;;21.75;37.05;102187.56;16141031;19;129767;-56
2022/06/16 11:12:23;;;;;;;2.40;1.07;;;;;;;21.76;37.12;102194.84;16136905;19;129510;-56
2022/06/16 11:17:50;;;;;;;2.25;1.35;;;;;;;21.76;36.73;102189.25;16134545;19;129376;-57
2022/06/16 11:23:42;;;;;;;1.85;1.00;;;;;;;21.78;36.92;102191.78;16139589;19;129615;-57
2022/06/16 11:29:15;;;;;;;8.38;1.00;;;;;;;21.77;36.55;102199.31;16139007;19;129710;-57
2022/06/16 11:34:39;;;;;;;1.38;0.90;;;;;;;21.77;36.67;102196.53;16140300;19;130493;-54
2022/06/16 11:40:12;;;;;;;2.45;0.75;;;;;;;21.78;36.90;102214.06;16132459;19;129721;-57
2022/06/16 11:45:44;;;;;;;1.75;0.80;;;;;;;21.79;36.75;102211.03;16135005;19;130937;-57
2022/06/16 11:51:29;;;;;;;3.15;0.90;;;;;;;21.80;36.79;102209.97;16135268;19;129700;-57
2022/06/16 11:57:10;;;;;;;2.10;0.70;;;;;;;21.79;36.66;102205.47;16139645;19;129030;-57
2022/06/16 12:02:54;;;;;;;1.40;0.60;;;;;;;21.80;37.11;102215.53;16139286;19;129102;-57
2022/06/16 12:08:37;;;;;;;1.15;0.80;;;;;;;21.81;36.90;102208.03;16138406;19;129217;-57
2022/06/16 12:14:33;;;;;;;3.33;0.80;;;;;;;21.81;36.78;102224.75;16135922;19;130601;-53
2022/06/16 12:20:05;;;;;;;1.20;0.70;;;;;;;21.81;37.29;102222.81;16122036;19;129381;-57
2022/06/16 12:25:52;;;;;;;2.90;0.75;;;;;;;21.82;36.94;102221.72;16116754;19;131115;-57
2022/06/16 12:31:26;;;;;;;1.88;0.70;;;;;;;21.84;37.40;102224.28;16110086;19;130225;-57
2022/06/16 12:36:55;;;;;;;3.13;0.60;;;;;;;21.83;37.28;102212.28;16115655;19;129441;-57
2022/06/16 12:42:21;;;;;;;1.17;0.82;;;;;;;21.84;37.20;102213.16;16128077;19;129777;-58
2022/06/16 12:47:51;;;;;;;4.00;0.60;;;;;;;21.86;37.28;102208.16;16121873;19;129326;-56
2022/06/16 12:53:24;;;;;;;1.83;0.60;;;;;;;21.87;37.47;102209.03;16138416;19;129685;-57
2022/06/16 12:58:51;;;;;;;2.17;0.75;;;;;;;21.88;37.38;102210.72;16145508;19;129270;-55
2022/06/16 13:04:31;;;;;;;1.90;0.55;;;;;;;21.89;37.24;102202.13;16145500;19;130812;-57
2022/06/16 13:09:53;;;;;;;1.92;0.60;;;;;;;21.87;36.93;102189.53;16145181;19;130226;-56
2022/06/16 13:15:22;;;;;;;2.38;0.93;;;;;;;21.90;37.04;102200.19;16145467;19;129521;-57
2022/06/16 13:20:47;;;;;;;1.25;0.60;;;;;;;21.91;37.17;102202.75;16143168;19;129190;-57
2022/06/16 13:26:21;;;;;;;1.48;0.50;;;;;;;21.93;37.31;102194.13;16147584;19;129414;-57
2022/06/16 13:31:43;;;;;;;1.20;0.50;;;;;;;21.93;37.22;102194.13;16144827;19;130268;-57
2022/06/16 13:37:05;;;;;;;1.67;0.70;;;;;;;21.93;37.10;102188.56;16143172;19;129780;-57
2022/06/16 13:42:56;;;;;;;3.60;0.98;;;;;;;21.95;37.77;102178.03;16147686;19;129561;-57
2022/06/16 13:48:51;;;;;;;1.10;0.70;;;;;;;21.95;37.31;102180.81;16147342;19;129513;-55
2022/06/16 13:54:35;;;;;;;5.43;1.67;;;;;;;21.96;37.48;102177.81;16144728;19;129525;-56
2022/06/16 14:00:03;;;;;;;13.30;3.15;;;;;;;21.99;37.19;102173.69;16146804;19;130744;-54
2022/06/16 14:05:30;;;;;;;34.13;9.82;;;;;;;22.03;37.60;102187.97;16142679;19;130493;-57
2022/06/16 14:11:14;;;;;;;46.85;14.57;;;;;;;22.05;37.62;102199.75;16144814;19;131384;-57
2022/06/16 14:16:40;;;;;;;43.20;11.60;;;;;;;22.08;37.31;102208.47;16142707;19;129145;-56
2022/06/16 14:22:17;;;;;;;38.72;12.85;;;;;;;22.11;37.32;102184.84;16146706;19;128965;-57
2022/06/16 14:27:43;;;;;;;;;;;;;;;22.07;37.10;102186.44;16146551;19;129811;-56
2022/06/16 14:33:14;;;;;;;33.10;10.57;;;;;;;22.11;37.77;102184.84;16135861;19;130533;-57
2022/06/16 14:39:21;;;;;;;29.38;9.82;;;;;;;22.10;37.69;102178.44;16146958;19;129715;-56
2022/06/16 14:44:59;;;;;;;27.83;8.90;;;;;;;22.11;37.48;102185.72;16132506;19;129560;-57
2022/06/16 14:50:31;;;;;;;25.05;8.65;;;;;;;22.12;37.70;102204.13;16131183;19;131121;-54
2022/06/16 14:56:08;;;;;;;19.30;6.28;;;;;;;22.12;37.93;102198.56;16134329;19;129693;-56
2022/06/16 15:01:33;;;;;;;18.23;6.43;;;;;;;22.13;37.59;102208.63;16132786;19;130834;-56
2022/06/16 15:06:58;;;;;;;16.73;5.85;;;;;;;22.16;37.57;102210.06;16131783;19;130152;-57
2022/06/16 15:12:20;;;;;;;16.35;5.07;;;;;;;22.16;37.78;102214.78;16127400;19;129478;-57
2022/06/16 15:23:31;;;;;;;14.13;4.88;;;;;;;22.18;37.61;102218.19;16139633;19;130322;-57
2022/06/16 15:28:59;;;;;;;15.63;5.45;;;;;;;22.18;37.63;102226.53;16137946;19;129023;-57
2022/06/16 15:40:03;;;;;;;13.27;5.07;;;;;;;22.19;37.59;102217.09;16138586;19;129225;-57
2022/06/16 15:45:25;;;;;;;11.90;3.42;;;;;;;22.20;37.50;102216.00;16129249;19;129662;-55
2022/06/16 15:50:47;;;;;;;10.82;3.05;;;;;;;22.21;37.44;102201.00;16134465;19;130731;-55
2022/06/16 15:56:12;;;;;;;11.43;4.03;;;;;;;22.21;37.52;102198.22;16136429;19;130339;-57
2022/06/16 16:01:55;;;;;;;8.93;2.90;;;;;;;22.26;37.88;102198.38;16137447;19;129005;-56
2022/06/16 16:07:17;;;;;;;11.00;3.47;;;;;;;22.27;37.73;102188.91;16134358;19;130380;-57
2022/06/16 16:12:39;;;;;;;9.55;2.90;;;;;;;22.28;37.74;102180.31;16132046;19;129451;-57
2022/06/16 16:18:04;;;;;;;11.57;3.53;;;;;;;22.30;37.91;102185.63;16135776;19;130876;-57
2022/06/16 16:23:36;;;;;;;8.15;2.17;;;;;;;22.32;37.91;102183.44;16137190;19;129659;-57
2022/06/16 16:29:02;;;;;;;7.35;2.45;;;;;;;22.32;37.59;102161.16;16148810;19;129975;-57
2022/06/16 16:34:32;;;;;;;6.55;2.20;;;;;;;22.34;38.05;102145.03;16147866;19;129601;-58
2022/06/16 16:40:03;;;;;;;5.07;2.00;;;;;;;22.36;37.91;102136.41;16150167;19;129438;-57
2022/06/16 16:45:30;;;;;;;8.80;2.20;;;;;;;22.38;37.61;102142.59;16142940;19;130185;-58
2022/06/16 16:50:55;;;;;;;6.90;1.95;;;;;;;22.39;37.17;102138.72;16145513;19;129846;-55
2022/06/16 16:56:23;;;;;;;3.37;1.70;;;;;;;22.41;37.88;102139.34;16149295;19;129136;-58
2022/06/16 17:01:47;;;;;;;6.78;1.80;;;;;;;22.43;37.73;102160.31;16148303;19;130134;-57
2022/06/16 17:07:09;;;;;;;3.28;1.50;;;;;;;22.46;37.71;102158.13;16147344;19;129432;-55
2022/06/16 17:12:32;;;;;;;4.15;1.30;;;;;;;22.43;37.88;102154.72;16142642;19;131260;-54
2022/06/16 17:17:58;;;;;;;3.35;1.40;;;;;;;22.42;37.62;102144.66;16147571;19;130459;-56
2022/06/16 17:23:19;;;;;;;;;;;;;;;22.40;37.45;102141.25;16141308;19;129615;-57
2022/06/16 17:28:41;;;;;;;3.50;1.27;;;;;;;22.44;37.67;102166.75;16146254;19;129298;-58
2022/06/16 17:34:03;;;;;;;3.33;1.08;;;;;;;22.42;37.94;102141.88;16143774;19;130520;-57
2022/06/16 17:39:31;;;;;;;4.97;1.30;;;;;;;22.43;37.54;102151.94;16148604;19;129435;-57
2022/06/16 17:44:53;;;;;;;4.75;1.15;;;;;;;22.44;38.05;102148.06;16142998;19;129071;-58
2022/06/16 17:50:17;;;;;;;1.80;1.00;;;;;;;22.43;38.13;102160.31;16145156;19;129298;-57
2022/06/16 18:01:20;;;;;;;4.57;1.67;;;;;;;22.42;37.88;102166.13;16144528;19;129467;-59
2022/06/16 18:06:42;;;;;;;5.82;1.48;;;;;;;22.43;38.07;102165.03;16140549;19;129523;-58
2022/06/16 18:12:05;;;;;;;2.92;1.27;;;;;;;22.43;38.07;102162.25;16140987;19;129587;-57
2022/06/16 18:17:27;;;;;;;4.55;1.25;;;;;;;22.42;37.99;102157.75;16141260;19;131169;-57
2022/06/16 18:22:49;;;;;;;2.40;1.17;;;;;;;22.40;37.80;102165.53;16146579;19;130103;-57
2022/06/16 18:28:14;;;;;;;4.05;1.08;;;;;;;22.40;38.28;102176.66;16142986;19;130567;-55
2022/06/16 18:33:36;;;;;;;2.13;0.97;;;;;;;22.38;37.88;102174.13;16140613;19;129533;-55
2022/06/16 18:39:18;;;;;;;1.25;0.90;;;;;;;22.34;38.03;102166.50;16141937;19;129434;-56
2022/06/16 18:44:40;;;;;;;3.15;1.02;;;;;;;22.33;38.08;102165.63;16137218;19;128991;-57
2022/06/16 18:50:03;;;;;;;4.10;1.10;;;;;;;22.32;38.18;102152.78;16132451;19;130236;-58
2022/06/16 18:55:24;;;;;;;2.40;0.98;;;;;;;22.32;38.15;102157.53;16137596;19;130690;-57
2022/06/16 19:00:48;;;;;;;2.15;0.70;;;;;;;22.32;38.17;102160.31;16137812;19;129905;-58
2022/06/16 19:06:13;;;;;;;1.52;1.00;;;;;;;22.31;38.29;102167.81;16138173;19;130118;-56
2022/06/16 19:12:17;;;;;;;3.17;0.88;;;;;;;22.30;38.41;102171.69;16132480;19;129857;-55
2022/06/16 19:17:30;;;;;;;5.18;0.80;;;;;;;22.32;38.13;102175.09;16136713;19;130922;-59
2022/06/16 19:22:54;;;;;;;6.60;1.47;;;;;;;22.32;38.81;102183.44;16135540;19;130077;-59
2022/06/16 19:28:16;;;;;;;12.43;1.75;;;;;;;22.33;38.76;102193.50;16131466;19;133622;-56
2022/06/16 19:33:38;;;;;;;4.65;1.58;;;;;;;22.34;38.68;102189.63;16133705;19;130469;-59
2022/06/16 19:39:00;;;;;;;3.20;1.30;;;;;;;22.35;38.88;102187.69;16134835;19;130708;-58
2022/06/16 19:55:53;;;;;;;9.15;1.48;;;;;;;22.34;39.38;102223.09;16138737;19;129341;-56
2022/06/16 20:01:15;;;;;;;5.45;1.40;;;;;;;22.33;39.44;102215.81;16135269;19;129965;-57
2022/06/16 20:06:37;;;;;;;8.77;1.42;;;;;;;22.32;39.36;102230.00;16131078;19;130547;-58
2022/06/16 20:11:59;;;;;;;10.02;1.10;;;;;;;22.31;39.27;102240.28;16125408;19;129935;-57
2022/06/16 20:17:20;;;;;;;3.38;1.10;;;;;;;22.34;39.76;102237.03;16130315;19;130845;-57
2022/06/16 20:22:44;;;;;;;5.90;1.02;;;;;;;22.36;39.39;102245.16;16129974;19;130666;-57
2022/06/16 20:28:06;;;;;;;13.75;1.30;;;;;;;22.36;39.86;102257.16;16130639;19;129535;-54
2022/06/16 20:33:30;;;;;;;8.55;0.98;;;;;;;22.36;40.01;102254.38;16122855;19;130440;-58
2022/06/16 20:38:55;;;;;;;3.75;1.35;;;;;;;22.36;40.38;102265.53;16127511;19;130995;-59
2022/06/16 20:44:17;;;;;;;8.25;1.05;;;;;;;22.38;40.71;102268.94;16128466;19;129911;-57
2022/06/16 20:49:41;;;;;;;9.13;1.15;;;;;;;22.44;40.53;102279.13;16128952;19;129631;-58
2022/06/16 20:55:06;;;;;;;13.68;1.50;;;;;;;22.48;40.87;102264.69;16127377;19;129324;-59
2022/06/16 21:06:17;;;;;;;10.20;1.40;;;;;;;22.51;40.61;102278.16;16135223;19;131958;-53
2022/06/16 21:17:26;;;;;;;6.70;1.17;;;;;;;22.50;40.98;102287.63;16138848;19;129945;-56
2022/06/16 21:22:48;;;;;;;7.47;1.50;;;;;;;22.48;41.09;102281.44;16109980;19;129569;-56
2022/06/16 21:28:10;;;;;;;9.15;1.67;;;;;;;22.45;40.66;102279.97;16111128;19;129812;-55
2022/06/16 21:33:33;;;;;;;8.13;1.27;;;;;;;22.43;40.93;102277.41;16116221;19;130860;-56
2022/06/16 21:38:55;;;;;;;6.88;1.45;;;;;;;22.39;40.68;102281.78;16146831;19;130067;-56
2022/06/16 21:44:17;;;;;;;6.50;1.58;;;;;;;22.37;40.68;102272.81;16144509;19;129938;-56
2022/06/16 21:49:52;;;;;;;6.90;1.10;;;;;;;22.37;40.42;102277.53;16144915;19;129214;-55
2022/06/16 21:55:18;;;;;;;4.20;1.20;;;;;;;22.33;40.57;102274.38;16140076;19;128985;-56
2022/06/16 22:00:40;;;;;;;7.97;1.60;;;;;;;22.33;40.54;102279.09;16143672;19;129390;-54
2022/06/16 22:06:03;;;;;;;7.57;1.17;;;;;;;22.31;40.41;102278.50;16145158;19;129028;-56
2022/06/16 22:17:18;;;;;;;2.63;1.17;;;;;;;22.28;40.34;102285.38;16140958;19;131083;-54
2022/06/16 22:22:39;;;;;;;3.75;1.25;;;;;;;22.26;40.49;102279.22;16143791;19;129374;-55
2022/06/16 22:28:05;;;;;;;4.93;1.13;;;;;;;22.25;40.38;102261.63;16145132;19;130230;-55
2022/06/16 22:33:28;;;;;;;;;;;;;;;22.20;40.12;102258.69;16140429;19;130682;-55
2022/06/16 22:38:50;;;;;;;5.93;0.93;;;;;;;22.23;40.52;102262.94;16143222;19;129665;-55
2022/06/16 22:44:23;;;;;;;2.53;1.05;;;;;;;22.22;40.45;102267.66;16135293;19;130088;-56
2022/06/16 22:49:48;;;;;;;3.22;0.70;;;;;;;22.22;40.04;102280.75;16140360;19;129900;-56
2022/06/16 23:00:55;;;;;;;2.50;0.93;;;;;;;22.18;40.26;102280.38;16140161;19;130221;-56
2022/06/16 23:06:21;;;;;;;3.58;1.02;;;;;;;22.16;40.54;102287.25;16142407;19;129717;-57
2022/06/16 23:11:43;;;;;;;1.00;0.63;;;;;;;22.17;40.77;102283.38;16137407;19;132765;-56
2022/06/16 23:17:05;;;;;;;0.68;0.60;;;;;;;22.19;40.76;102275.63;16134206;19;129114;-57
2022/06/16 23:22:28;;;;;;;1.90;0.77;;;;;;;22.21;41.06;102273.50;16139537;19;129822;-58
2022/06/16 23:27:50;;;;;;;1.42;0.65;;;;;;;22.25;40.78;102277.50;16141258;19;130245;-58
2022/06/16 23:33:14;;;;;;;1.92;0.80;;;;;;;22.28;41.04;102289.03;16138849;19;130089;-58
2022/06/16 23:38:38;;;;;;;2.78;0.70;;;;;;;22.31;40.75;102282.13;16139464;19;129164;-56
2022/06/16 23:43:59;;;;;;;2.67;0.70;;;;;;;22.33;40.67;102277.16;16138616;19;129597;-58
2022/06/16 23:49:27;;;;;;;4.55;0.80;;;;;;;22.35;40.80;102272.19;16140084;19;132198;-57
2022/06/16 23:54:51;;;;;;;0.73;0.60;;;;;;;22.37;40.36;102275.59;16134508;19;130528;-57
